sensor_id;sensor_type;location;lat;lon;timestamp;P1;P2;P0
49686;PMS5003;36064;38.180;-122.272;2023-07-13T00:00:01;4.0;3.2;
49686;PMS5003;36064;38.180;-122.272;2023-07-13T00:05:00;6.0;4.2;
49686;PMS5003;36064;38.180;-122.272;2023-07-13T00:10:00;7.0;6.0;
49686;PMS5003;36064;38.180;-122.272;2023-07-13T00:15:02;5.0;4.6;
49686;PMS5003;36064;38.180;-122.272;2023-07-13T00:20:00;5.2;4.2;
49686;PMS5003;36064;38.180;-122.272;2023-07-13T00:25:00;5.6;5.6;
49686;PMS5003;36064;38.180;-122.272;2023-07-13T00:30:00;4.4;4.0;
49686;PMS5003;36064;38.180;-122.272;2023-07-13T00:35:00;5.0;4.0;
49686;PMS5003;36064;38.180;-122.272;2023-07-13T00:40:00;4.6;4.2;
49686;PMS5003;36064;38.180;-122.272;2023-07-13T00:45:01;7.4;5.4;
49686;PMS5003;36064;38.180;-122.272;2023-07-13T00:50:00;6.8;5.2;
49686;PMS5003;36064;38.180;-122.272;2023-07-13T00:55:00;5.6;4.6;
49686;PMS5003;36064;38.180;-122.272;2023-07-13T01:00:02;6.4;5.8;
49686;PMS5003;36064;38.180;-122.272;2023-07-13T01:05:00;7.8;7.2;
49686;PMS5003;36064;38.180;-122.272;2023-07-13T01:10:00;7.4;6.8;
49686;PMS5003;36064;38.180;-122.272;2023-07-13T01:15:01;4.6;3.4;
49686;PMS5003;36064;38.180;-122.272;2023-07-13T01:20:00;4.0;3.2;
49686;PMS5003;36064;38.180;-122.272;2023-07-13T01:25:01;4.2;3.8;
49686;PMS5003;36064;38.180;-122.272;2023-07-13T01:30:01;4.2;4.2;
49686;PMS5003;36064;38.180;-122.272;2023-07-13T01:35:00;7.0;6.6;
49686;PMS5003;36064;38.180;-122.272;2023-07-13T01:40:00;4.8;4.6;
49686;PMS5003;36064;38.180;-122.272;2023-07-13T01:45:01;7.4;6.6;
49686;PMS5003;36064;38.180;-122.272;2023-07-13T01:50:00;3.8;3.4;
49686;PMS5003;36064;38.180;-122.272;2023-07-13T01:55:00;4.4;3.6;
49686;PMS5003;36064;38.180;-122.272;2023-07-13T02:00:02;4.2;4.2;
49686;PMS5003;36064;38.180;-122.272;2023-07-13T02:05:00;6.8;4.2;
49686;PMS5003;36064;38.180;-122.272;2023-07-13T02:10:00;7.0;4.2;
49686;PMS5003;36064;38.180;-122.272;2023-07-13T02:15:01;4.0;3.4;
49686;PMS5003;36064;38.180;-122.272;2023-07-13T02:20:00;5.2;3.8;
49686;PMS5003;36064;38.180;-122.272;2023-07-13T02:25:00;5.6;4.6;
49686;PMS5003;36064;38.180;-122.272;2023-07-13T02:30:01;5.6;3.8;
49686;PMS5003;36064;38.180;-122.272;2023-07-13T02:35:00;4.0;3.2;
49686;PMS5003;36064;38.180;-122.272;2023-07-13T02:40:00;5.0;3.6;
49686;PMS5003;36064;38.180;-122.272;2023-07-13T02:45:00;5.2;4.6;
49686;PMS5003;36064;38.180;-122.272;2023-07-13T02:50:00;3.8;3.4;
49686;PMS5003;36064;38.180;-122.272;2023-07-13T02:55:00;7.4;4.8;
49686;PMS5003;36064;38.180;-122.272;2023-07-13T03:00:01;3.4;3.2;
49686;PMS5003;36064;38.180;-122.272;2023-07-13T03:05:01;4.2;3.6;
49686;PMS5003;36064;38.180;-122.272;2023-07-13T03:10:01;4.8;4.0;
49686;PMS5003;36064;38.180;-122.272;2023-07-13T03:15:00;4.8;4.2;
49686;PMS5003;36064;38.180;-122.272;2023-07-13T03:20:00;6.6;4.4;
49686;PMS5003;36064;38.180;-122.272;2023-07-13T03:25:00;5.6;4.8;
49686;PMS5003;36064;38.180;-122.272;2023-07-13T03:30:00;4.6;4.2;
49686;PMS5003;36064;38.180;-122.272;2023-07-13T03:35:00;4.6;3.6;
49686;PMS5003;36064;38.180;-122.272;2023-07-13T03:40:00;4.6;3.6;
49686;PMS5003;36064;38.180;-122.272;2023-07-13T03:45:00;4.0;3.2;
49686;PMS5003;36064;38.180;-122.272;2023-07-13T03:50:00;5.2;4.4;
49686;PMS5003;36064;38.180;-122.272;2023-07-13T03:55:00;3.6;3.6;
49686;PMS5003;36064;38.180;-122.272;2023-07-13T04:00:00;7.0;6.2;
49686;PMS5003;36064;38.180;-122.272;2023-07-13T04:05:00;4.8;4.4;
49686;PMS5003;36064;38.180;-122.272;2023-07-13T04:10:00;3.61;3.41;
49686;PMS5003;36064;38.180;-122.272;2023-07-13T04:15:00;4.0;4.0;
49686;PMS5003;36064;38.180;-122.272;2023-07-13T04:20:00;4.6;4.6;
49686;PMS5003;36064;38.180;-122.272;2023-07-13T04:25:00;4.4;4.4;
49686;PMS5003;36064;38.180;-122.272;2023-07-13T04:30:00;5.2;4.8;
49686;PMS5003;36064;38.180;-122.272;2023-07-13T04:35:00;5.0;3.8;
49686;PMS5003;36064;38.180;-122.272;2023-07-13T04:40:00;7.0;6.0;
49686;PMS5003;36064;38.180;-122.272;2023-07-13T04:45:00;6.0;4.4;
49686;PMS5003;36064;38.180;-122.272;2023-07-13T04:50:00;4.8;2.8;
49686;PMS5003;36064;38.180;-122.272;2023-07-13T04:55:00;5.4;2.8;
49686;PMS5003;36064;38.180;-122.272;2023-07-13T05:00:00;4.4;2.8;
49686;PMS5003;36064;38.180;-122.272;2023-07-13T05:05:00;4.2;4.0;
49686;PMS5003;36064;38.180;-122.272;2023-07-13T05:10:00;4.2;3.8;
49686;PMS5003;36064;38.180;-122.272;2023-07-13T05:15:01;4.0;4.0;
49686;PMS5003;36064;38.180;-122.272;2023-07-13T05:20:00;3.8;3.8;
49686;PMS5003;36064;38.180;-122.272;2023-07-13T05:25:00;2.4;2.4;
49686;PMS5003;36064;38.180;-122.272;2023-07-13T05:30:00;2.4;3.4;
49686;PMS5003;36064;38.180;-122.272;2023-07-13T05:35:00;4.0;2.8;
49686;PMS5003;36064;38.180;-122.272;2023-07-13T05:40:00;3.8;3.4;
49686;PMS5003;36064;38.180;-122.272;2023-07-13T05:45:01;4.2;3.8;
49686;PMS5003;36064;38.180;-122.272;2023-07-13T05:50:00;4.2;4.0;
49686;PMS5003;36064;38.180;-122.272;2023-07-13T05:55:00;4.8;4.2;
49686;PMS5003;36064;38.180;-122.272;2023-07-13T06:00:00;5.8;3.4;
49686;PMS5003;36064;38.180;-122.272;2023-07-13T06:05:00;4.4;3.2;
49686;PMS5003;36064;38.180;-122.272;2023-07-13T06:10:00;6.4;5.2;
49686;PMS5003;36064;38.180;-122.272;2023-07-13T06:15:00;5.2;4.0;
49686;PMS5003;36064;38.180;-122.272;2023-07-13T06:20:00;3.4;3.4;
49686;PMS5003;36064;38.180;-122.272;2023-07-13T06:25:00;5.8;3.2;
49686;PMS5003;36064;38.180;-122.272;2023-07-13T06:30:00;6.4;4.6;
49686;PMS5003;36064;38.180;-122.272;2023-07-13T06:35:00;5.2;3.0;
49686;PMS5003;36064;38.180;-122.272;2023-07-13T06:40:00;7.2;6.0;
49686;PMS5003;36064;38.180;-122.272;2023-07-13T06:45:00;4.4;3.2;
49686;PMS5003;36064;38.180;-122.272;2023-07-13T06:50:00;3.8;3.2;
49686;PMS5003;36064;38.180;-122.272;2023-07-13T06:55:00;4.8;3.8;
49686;PMS5003;36064;38.180;-122.272;2023-07-13T07:00:00;5.2;3.4;
49686;PMS5003;36064;38.180;-122.272;2023-07-13T07:05:00;5.4;4.0;
49686;PMS5003;36064;38.180;-122.272;2023-07-13T07:10:01;5.0;4.0;
49686;PMS5003;36064;38.180;-122.272;2023-07-13T07:15:00;6.2;2.8;
49686;PMS5003;36064;38.180;-122.272;2023-07-13T07:20:00;4.0;3.6;
49686;PMS5003;36064;38.180;-122.272;2023-07-13T07:25:00;4.2;3.4;
49686;PMS5003;36064;38.180;-122.272;2023-07-13T07:30:00;3.4;3.6;
49686;PMS5003;36064;38.180;-122.272;2023-07-13T07:35:00;4.0;3.6;
49686;PMS5003;36064;38.180;-122.272;2023-07-13T07:40:00;4.6;4.6;
49686;PMS5003;36064;38.180;-122.272;2023-07-13T07:45:00;4.8;2.8;
49686;PMS5003;36064;38.180;-122.272;2023-07-13T07:50:00;6.4;4.6;
49686;PMS5003;36064;38.180;-122.272;2023-07-13T07:55:01;9.0;5.4;
49686;PMS5003;36064;38.180;-122.272;2023-07-13T08:00:00;8.4;6.2;
49686;PMS5003;36064;38.180;-122.272;2023-07-13T08:05:00;6.0;5.2;
49686;PMS5003;36064;38.180;-122.272;2023-07-13T08:10:00;3.8;3.0;
49686;PMS5003;36064;38.180;-122.272;2023-07-13T08:15:00;5.4;4.6;
49686;PMS5003;36064;38.180;-122.272;2023-07-13T08:20:00;5.4;3.8;
49686;PMS5003;36064;38.180;-122.272;2023-07-13T08:25:01;4.2;3.0;
49686;PMS5003;36064;38.180;-122.272;2023-07-13T08:30:00;2.8;2.4;
49686;PMS5003;36064;38.180;-122.272;2023-07-13T08:35:00;2.8;2.4;
49686;PMS5003;36064;38.180;-122.272;2023-07-13T08:40:00;2.8;2.6;
49686;PMS5003;36064;38.180;-122.272;2023-07-13T08:45:04;5.0;3.8;
49686;PMS5003;36064;38.180;-122.272;2023-07-13T08:50:00;5.4;3.6;
49686;PMS5003;36064;38.180;-122.272;2023-07-13T08:55:02;2.2;2.2;
49686;PMS5003;36064;38.180;-122.272;2023-07-13T09:00:00;6.0;4.4;
49686;PMS5003;36064;38.180;-122.272;2023-07-13T09:05:01;2.2;1.0;
49686;PMS5003;36064;38.180;-122.272;2023-07-13T09:10:05;3.0;1.4;
49686;PMS5003;36064;38.180;-122.272;2023-07-13T09:15:01;3.6;4.0;
49686;PMS5003;36064;38.180;-122.272;2023-07-13T09:20:01;4.2;2.4;
49686;PMS5003;36064;38.180;-122.272;2023-07-13T09:25:02;6.8;6.4;
49686;PMS5003;36064;38.180;-122.272;2023-07-13T09:30:02;5.6;2.8;
49686;PMS5003;36064;38.180;-122.272;2023-07-13T09:35:00;4.2;3.4;
49686;PMS5003;36064;38.180;-122.272;2023-07-13T09:40:01;5.2;4.6;
49686;PMS5003;36064;38.180;-122.272;2023-07-13T09:45:01;3.8;3.8;
49686;PMS5003;36064;38.180;-122.272;2023-07-13T09:50:01;5.2;4.8;
49686;PMS5003;36064;38.180;-122.272;2023-07-13T09:55:00;3.59;2.99;
49686;PMS5003;36064;38.180;-122.272;2023-07-13T10:00:00;4.6;4.4;
49686;PMS5003;36064;38.180;-122.272;2023-07-13T10:05:02;2.6;2.2;
49686;PMS5003;36064;38.180;-122.272;2023-07-13T10:10:01;4.6;3.0;
49686;PMS5003;36064;38.180;-122.272;2023-07-13T10:15:00;3.0;2.8;
49686;PMS5003;36064;38.180;-122.272;2023-07-13T10:20:01;2.2;2.0;
49686;PMS5003;36064;38.180;-122.272;2023-07-13T10:25:00;5.0;4.2;
49686;PMS5003;36064;38.180;-122.272;2023-07-13T10:30:02;5.0;4.8;
49686;PMS5003;36064;38.180;-122.272;2023-07-13T10:35:00;5.6;4.4;
49686;PMS5003;36064;38.180;-122.272;2023-07-13T10:40:00;2.2;2.2;
49686;PMS5003;36064;38.180;-122.272;2023-07-13T10:45:00;3.4;3.4;
49686;PMS5003;36064;38.180;-122.272;2023-07-13T10:50:00;3.6;3.0;
49686;PMS5003;36064;38.180;-122.272;2023-07-13T10:55:00;3.6;3.6;
49686;PMS5003;36064;38.180;-122.272;2023-07-13T11:05:01;4.0;4.0;
49686;PMS5003;36064;38.180;-122.272;2023-07-13T11:10:03;5.0;3.8;
49686;PMS5003;36064;38.180;-122.272;2023-07-13T11:15:02;6.2;5.4;
49686;PMS5003;36064;38.180;-122.272;2023-07-13T11:20:09;5.2;4.8;
49686;PMS5003;36064;38.180;-122.272;2023-07-13T11:25:01;2.8;2.6;
49686;PMS5003;36064;38.180;-122.272;2023-07-13T11:35:00;4.6;4.0;
49686;PMS5003;36064;38.180;-122.272;2023-07-13T11:40:00;4.6;4.8;
49686;PMS5003;36064;38.180;-122.272;2023-07-13T11:45:00;3.2;2.8;
49686;PMS5003;36064;38.180;-122.272;2023-07-13T11:50:00;4.0;3.2;
49686;PMS5003;36064;38.180;-122.272;2023-07-13T11:55:01;3.4;3.0;
49686;PMS5003;36064;38.180;-122.272;2023-07-13T12:00:03;5.2;5.2;
49686;PMS5003;36064;38.180;-122.272;2023-07-13T12:05:00;4.2;4.2;
49686;PMS5003;36064;38.180;-122.272;2023-07-13T12:10:01;5.6;4.8;
49686;PMS5003;36064;38.180;-122.272;2023-07-13T12:15:00;5.2;4.8;
49686;PMS5003;36064;38.180;-122.272;2023-07-13T12:20:00;3.8;3.6;
49686;PMS5003;36064;38.180;-122.272;2023-07-13T12:25:00;6.2;5.4;
49686;PMS5003;36064;38.180;-122.272;2023-07-13T12:30:01;6.0;5.2;
49686;PMS5003;36064;38.180;-122.272;2023-07-13T12:35:07;6.6;5.8;
49686;PMS5003;36064;38.180;-122.272;2023-07-13T12:40:00;7.4;6.2;
49686;PMS5003;36064;38.180;-122.272;2023-07-13T12:45:01;6.0;6.0;
49686;PMS5003;36064;38.180;-122.272;2023-07-13T12:50:02;6.0;6.0;
49686;PMS5003;36064;38.180;-122.272;2023-07-13T12:55:04;6.8;6.0;
49686;PMS5003;36064;38.180;-122.272;2023-07-13T13:00:00;6.2;6.2;
49686;PMS5003;36064;38.180;-122.272;2023-07-13T13:05:00;8.0;8.4;
49686;PMS5003;36064;38.180;-122.272;2023-07-13T13:10:00;5.2;4.6;
49686;PMS5003;36064;38.180;-122.272;2023-07-13T13:15:00;9.2;8.0;
49686;PMS5003;36064;38.180;-122.272;2023-07-13T13:20:00;8.4;7.6;
49686;PMS5003;36064;38.180;-122.272;2023-07-13T13:25:00;6.6;6.2;
49686;PMS5003;36064;38.180;-122.272;2023-07-13T13:30:00;8.8;8.0;
49686;PMS5003;36064;38.180;-122.272;2023-07-13T13:35:00;7.2;6.8;
49686;PMS5003;36064;38.180;-122.272;2023-07-13T13:40:00;11.0;9.0;
49686;PMS5003;36064;38.180;-122.272;2023-07-13T13:45:00;6.8;6.8;
49686;PMS5003;36064;38.180;-122.272;2023-07-13T13:50:00;6.8;6.8;
49686;PMS5003;36064;38.180;-122.272;2023-07-13T13:55:00;6.0;5.6;
49686;PMS5003;36064;38.180;-122.272;2023-07-13T14:00:00;6.8;5.8;
49686;PMS5003;36064;38.180;-122.272;2023-07-13T14:05:01;4.0;3.6;
49686;PMS5003;36064;38.180;-122.272;2023-07-13T14:10:00;5.6;5.2;
49686;PMS5003;36064;38.180;-122.272;2023-07-13T14:15:00;5.8;5.4;
49686;PMS5003;36064;38.180;-122.272;2023-07-13T14:20:00;7.6;7.6;
49686;PMS5003;36064;38.180;-122.272;2023-07-13T14:25:00;6.2;5.6;
49686;PMS5003;36064;38.180;-122.272;2023-07-13T14:30:00;5.6;5.4;
49686;PMS5003;36064;38.180;-122.272;2023-07-13T14:35:00;6.6;6.2;
49686;PMS5003;36064;38.180;-122.272;2023-07-13T14:40:00;6.6;6.4;
49686;PMS5003;36064;38.180;-122.272;2023-07-13T14:45:00;9.8;9.0;
49686;PMS5003;36064;38.180;-122.272;2023-07-13T14:50:00;5.0;5.0;
49686;PMS5003;36064;38.180;-122.272;2023-07-13T14:55:00;6.4;6.4;
49686;PMS5003;36064;38.180;-122.272;2023-07-13T15:00:00;6.6;6.6;
49686;PMS5003;36064;38.180;-122.272;2023-07-13T15:05:00;8.0;6.4;
49686;PMS5003;36064;38.180;-122.272;2023-07-13T15:10:00;7.4;7.2;
49686;PMS5003;36064;38.180;-122.272;2023-07-13T15:15:00;7.2;8.2;
49686;PMS5003;36064;38.180;-122.272;2023-07-13T15:20:00;8.8;8.4;
49686;PMS5003;36064;38.180;-122.272;2023-07-13T15:25:00;7.6;7.2;
49686;PMS5003;36064;38.180;-122.272;2023-07-13T15:30:00;7.6;7.2;
49686;PMS5003;36064;38.180;-122.272;2023-07-13T15:35:00;8.8;8.0;
49686;PMS5003;36064;38.180;-122.272;2023-07-13T15:40:00;7.4;7.8;
49686;PMS5003;36064;38.180;-122.272;2023-07-13T15:45:00;7.6;6.6;
49686;PMS5003;36064;38.180;-122.272;2023-07-13T15:50:00;6.6;5.4;
49686;PMS5003;36064;38.180;-122.272;2023-07-13T15:55:00;6.0;5.2;
49686;PMS5003;36064;38.180;-122.272;2023-07-13T16:00:00;4.6;4.6;
49686;PMS5003;36064;38.180;-122.272;2023-07-13T16:05:00;6.4;5.2;
49686;PMS5003;36064;38.180;-122.272;2023-07-13T16:10:00;5.2;4.8;
49686;PMS5003;36064;38.180;-122.272;2023-07-13T16:15:00;3.4;2.6;
49686;PMS5003;36064;38.180;-122.272;2023-07-13T16:20:00;2.8;2.4;
49686;PMS5003;36064;38.180;-122.272;2023-07-13T16:25:00;2.6;1.8;
49686;PMS5003;36064;38.180;-122.272;2023-07-13T16:30:01;2.8;2.4;
49686;PMS5003;36064;38.180;-122.272;2023-07-13T16:35:00;2.8;2.0;
49686;PMS5003;36064;38.180;-122.272;2023-07-13T16:40:00;2.6;1.6;
49686;PMS5003;36064;38.180;-122.272;2023-07-13T16:45:00;2.8;2.6;
49686;PMS5003;36064;38.180;-122.272;2023-07-13T16:50:00;3.6;3.0;
49686;PMS5003;36064;38.180;-122.272;2023-07-13T16:55:00;2.0;2.0;
49686;PMS5003;36064;38.180;-122.272;2023-07-13T17:00:00;4.8;2.4;
49686;PMS5003;36064;38.180;-122.272;2023-07-13T17:05:00;4.0;3.2;
49686;PMS5003;36064;38.180;-122.272;2023-07-13T17:10:01;1.8;1.8;
49686;PMS5003;36064;38.180;-122.272;2023-07-13T17:15:01;2.2;2.6;
49686;PMS5003;36064;38.180;-122.272;2023-07-13T17:20:00;3.6;3.6;
49686;PMS5003;36064;38.180;-122.272;2023-07-13T17:25:00;2.4;2.4;
49686;PMS5003;36064;38.180;-122.272;2023-07-13T17:30:00;1.8;1.8;
49686;PMS5003;36064;38.180;-122.272;2023-07-13T17:35:01;2.6;2.6;
49686;PMS5003;36064;38.180;-122.272;2023-07-13T17:40:00;2.4;2.4;
49686;PMS5003;36064;38.180;-122.272;2023-07-13T17:45:00;3.0;3.0;
49686;PMS5003;36064;38.180;-122.272;2023-07-13T17:50:00;3.8;3.8;
49686;PMS5003;36064;38.180;-122.272;2023-07-13T17:55:01;2.4;2.4;
49686;PMS5003;36064;38.180;-122.272;2023-07-13T18:00:00;3.6;3.6;
49686;PMS5003;36064;38.180;-122.272;2023-07-13T18:05:00;3.2;2.4;
49686;PMS5003;36064;38.180;-122.272;2023-07-13T18:10:00;3.2;3.0;
49686;PMS5003;36064;38.180;-122.272;2023-07-13T18:15:00;2.2;1.8;
49686;PMS5003;36064;38.180;-122.272;2023-07-13T18:20:00;2.8;1.6;
49686;PMS5003;36064;38.180;-122.272;2023-07-13T18:25:01;2.6;1.4;
49686;PMS5003;36064;38.180;-122.272;2023-07-13T18:30:00;2.6;1.4;
49686;PMS5003;36064;38.180;-122.272;2023-07-13T18:35:00;2.2;2.0;
49686;PMS5003;36064;38.180;-122.272;2023-07-13T18:40:00;2.2;1.8;
49686;PMS5003;36064;38.180;-122.272;2023-07-13T18:45:00;2.6;2.6;
49686;PMS5003;36064;38.180;-122.272;2023-07-13T18:50:00;2.6;2.6;
49686;PMS5003;36064;38.180;-122.272;2023-07-13T18:55:00;1.0;1.0;
49686;PMS5003;36064;38.180;-122.272;2023-07-13T19:00:00;3.2;2.8;
49686;PMS5003;36064;38.180;-122.272;2023-07-13T19:05:00;3.6;2.8;
49686;PMS5003;36064;38.180;-122.272;2023-07-13T19:10:00;3.2;2.4;
49686;PMS5003;36064;38.180;-122.272;2023-07-13T19:15:00;2.2;1.8;
49686;PMS5003;36064;38.180;-122.272;2023-07-13T19:20:00;2.0;2.0;
49686;PMS5003;36064;38.180;-122.272;2023-07-13T19:25:00;2.2;1.6;
49686;PMS5003;36064;38.180;-122.272;2023-07-13T19:30:00;2.6;2.2;
49686;PMS5003;36064;38.180;-122.272;2023-07-13T19:35:00;1.6;1.8;
49686;PMS5003;36064;38.180;-122.272;2023-07-13T19:40:00;2.0;1.8;
49686;PMS5003;36064;38.180;-122.272;2023-07-13T19:45:00;1.8;1.0;
49686;PMS5003;36064;38.180;-122.272;2023-07-13T19:50:00;1.8;2.6;
49686;PMS5003;36064;38.180;-122.272;2023-07-13T19:55:00;2.6;2.6;
49686;PMS5003;36064;38.180;-122.272;2023-07-13T20:00:00;1.8;1.8;
49686;PMS5003;36064;38.180;-122.272;2023-07-13T20:05:00;2.0;1.6;
49686;PMS5003;36064;38.180;-122.272;2023-07-13T20:10:00;2.0;1.6;
49686;PMS5003;36064;38.180;-122.272;2023-07-13T20:15:00;2.2;1.8;
49686;PMS5003;36064;38.180;-122.272;2023-07-13T20:20:00;1.2;1.2;
49686;PMS5003;36064;38.180;-122.272;2023-07-13T20:25:00;3.0;2.6;
49686;PMS5003;36064;38.180;-122.272;2023-07-13T20:30:00;2.6;2.6;
49686;PMS5003;36064;38.180;-122.272;2023-07-13T20:35:00;1.8;1.8;
49686;PMS5003;36064;38.180;-122.272;2023-07-13T20:40:00;2.8;2.8;
49686;PMS5003;36064;38.180;-122.272;2023-07-13T20:45:00;1.6;1.4;
49686;PMS5003;36064;38.180;-122.272;2023-07-13T20:50:00;1.4;1.4;
49686;PMS5003;36064;38.180;-122.272;2023-07-13T20:55:00;1.6;1.2;
49686;PMS5003;36064;38.180;-122.272;2023-07-13T21:00:00;2.0;2.0;
49686;PMS5003;36064;38.180;-122.272;2023-07-13T21:05:08;1.8;1.8;
49686;PMS5003;36064;38.180;-122.272;2023-07-13T21:10:00;0.8;0.8;
49686;PMS5003;36064;38.180;-122.272;2023-07-13T21:15:00;1.4;1.4;
49686;PMS5003;36064;38.180;-122.272;2023-07-13T21:20:00;2.8;2.2;
49686;PMS5003;36064;38.180;-122.272;2023-07-13T21:25:03;1.6;1.6;
49686;PMS5003;36064;38.180;-122.272;2023-07-13T21:30:00;1.8;1.4;
49686;PMS5003;36064;38.180;-122.272;2023-07-13T21:35:00;2.6;2.6;
49686;PMS5003;36064;38.180;-122.272;2023-07-13T21:40:01;1.6;1.2;
49686;PMS5003;36064;38.180;-122.272;2023-07-13T21:45:00;1.8;1.6;
49686;PMS5003;36064;38.180;-122.272;2023-07-13T21:50:00;2.6;2.6;
49686;PMS5003;36064;38.180;-122.272;2023-07-13T21:55:00;2.6;1.8;
49686;PMS5003;36064;38.180;-122.272;2023-07-13T22:00:00;2.0;1.6;
49686;PMS5003;36064;38.180;-122.272;2023-07-13T22:05:00;2.2;0.8;
49686;PMS5003;36064;38.180;-122.272;2023-07-13T22:10:00;1.6;1.4;
49686;PMS5003;36064;38.180;-122.272;2023-07-13T22:15:00;1.0;1.0;
49686;PMS5003;36064;38.180;-122.272;2023-07-13T22:20:00;2.6;2.2;
49686;PMS5003;36064;38.180;-122.272;2023-07-13T22:25:00;1.6;1.6;
49686;PMS5003;36064;38.180;-122.272;2023-07-13T22:30:00;1.6;1.2;
49686;PMS5003;36064;38.180;-122.272;2023-07-13T22:35:00;1.2;1.0;
49686;PMS5003;36064;38.180;-122.272;2023-07-13T22:40:00;1.6;1.6;
49686;PMS5003;36064;38.180;-122.272;2023-07-13T22:45:00;2.2;1.4;
49686;PMS5003;36064;38.180;-122.272;2023-07-13T22:50:00;3.6;1.4;
49686;PMS5003;36064;38.180;-122.272;2023-07-13T22:55:00;2.8;2.0;
49686;PMS5003;36064;38.180;-122.272;2023-07-13T23:00:00;3.8;1.8;
49686;PMS5003;36064;38.180;-122.272;2023-07-13T23:05:00;2.4;1.6;
49686;PMS5003;36064;38.180;-122.272;2023-07-13T23:10:00;2.2;1.2;
49686;PMS5003;36064;38.180;-122.272;2023-07-13T23:15:00;2.0;1.4;
49686;PMS5003;36064;38.180;-122.272;2023-07-13T23:20:00;2.0;1.4;
49686;PMS5003;36064;38.180;-122.272;2023-07-13T23:25:00;1.4;1.8;
49686;PMS5003;36064;38.180;-122.272;2023-07-13T23:30:00;2.6;2.4;
49686;PMS5003;36064;38.180;-122.272;2023-07-13T23:35:00;3.4;2.2;
49686;PMS5003;36064;38.180;-122.272;2023-07-13T23:40:00;5.0;3.2;
49686;PMS5003;36064;38.180;-122.272;2023-07-13T23:45:00;1.8;1.8;
49686;PMS5003;36064;38.180;-122.272;2023-07-13T23:50:00;3.2;2.4;
49686;PMS5003;36064;38.180;-122.272;2023-07-13T23:55:00;2.0;1.8;
